createdAt,value
2023-02-22T06:08:46.173Z,94946.00
2023-02-22T06:09:45.946Z,94950.00
2023-02-22T06:10:45.954Z,94950.00
2023-02-22T06:11:45.952Z,94950.00
2023-02-22T06:12:45.955Z,94948.00
2023-02-22T06:13:45.907Z,94952.00
2023-02-22T06:14:45.913Z,94954.00
2023-02-22T06:15:45.956Z,94952.00
2023-02-22T06:16:45.915Z,94954.00
2023-02-22T06:17:45.948Z,94954.00
2023-02-22T06:18:45.872Z,94956.00
2023-02-22T06:19:45.876Z,94958.00
2023-02-22T06:20:45.898Z,94962.00
2023-02-22T06:21:45.892Z,94960.00
2023-02-22T06:22:45.873Z,94958.00
2023-02-22T06:23:45.838Z,94958.00
2023-02-22T06:24:45.840Z,94960.00
2023-02-22T06:25:45.868Z,94958.00
2023-02-22T06:26:45.824Z,94962.00
2023-02-22T06:27:45.838Z,94962.00
2023-02-22T06:28:45.847Z,94962.00
2023-02-22T06:29:45.843Z,94962.00
2023-02-22T06:30:45.866Z,94963.00
2023-02-22T06:31:45.895Z,94963.00
2023-02-22T06:32:45.795Z,94967.00
2023-02-22T06:33:45.796Z,94965.00
2023-02-22T06:34:46.190Z,94965.00
2023-02-22T06:35:45.789Z,94967.00
2023-02-22T06:36:45.786Z,94963.00
2023-02-22T06:37:45.793Z,94965.00
2023-02-22T06:38:45.772Z,94965.00
2023-02-22T06:39:46.208Z,94969.00
2023-02-22T06:40:45.798Z,94967.00
2023-02-22T06:41:45.819Z,94969.00
2023-02-22T06:42:45.763Z,94971.00
2023-02-22T06:43:45.812Z,94971.00
2023-02-22T06:44:46.162Z,94971.00
2023-02-22T06:45:53.708Z,94975.00
2023-02-22T06:46:45.834Z,94973.00
2023-02-22T06:47:45.934Z,94975.00
2023-02-22T06:48:45.935Z,94975.00
2023-02-22T06:49:46.085Z,94971.00
2023-02-22T06:50:45.823Z,94973.00
2023-02-22T06:51:45.794Z,94977.00
2023-02-22T06:52:45.794Z,94975.00
2023-02-22T06:53:45.812Z,94973.00
2023-02-22T06:54:45.780Z,94975.00
2023-02-22T06:55:45.816Z,94975.00
2023-02-22T06:56:45.770Z,94975.00
2023-02-22T06:57:45.786Z,94975.00
2023-02-22T06:58:45.734Z,94975.00
2023-02-22T06:59:45.742Z,94977.00
2023-02-22T07:00:45.821Z,94977.00
2023-02-22T07:01:45.794Z,94975.00
2023-02-22T07:02:45.834Z,94975.00
2023-02-22T07:03:45.953Z,94973.00
2023-02-22T07:04:45.921Z,94971.00
2023-02-22T07:05:45.966Z,94971.00
2023-02-22T07:06:46.018Z,94975.00
2023-02-22T07:07:46.047Z,94971.00
2023-02-22T07:08:46.093Z,94971.00
2023-02-22T07:09:46.128Z,94971.00
2023-02-22T07:10:46.235Z,94971.00
2023-02-22T07:11:46.170Z,94971.00
2023-02-22T07:12:46.202Z,94971.00
2023-02-22T07:13:46.227Z,94973.00
2023-02-22T07:14:46.225Z,94971.00
2023-02-22T07:15:46.710Z,94971.00
2023-02-22T07:16:46.251Z,94971.00
2023-02-22T07:17:46.232Z,94969.00
2023-02-22T07:18:46.274Z,94969.00
2023-02-22T07:19:46.273Z,94969.00
2023-02-22T07:20:46.708Z,94969.00
2023-02-22T07:21:46.281Z,94969.00
2023-02-22T07:22:46.294Z,94969.00
2023-02-22T07:23:46.323Z,94969.00
2023-02-22T07:24:46.283Z,94965.00
2023-02-22T07:25:46.709Z,94967.00
2023-02-22T07:26:46.269Z,94967.00
2023-02-22T07:27:46.401Z,94967.00
2023-02-22T07:28:46.362Z,94967.00
2023-02-22T07:29:46.367Z,94969.00
2023-02-22T07:30:46.733Z,94967.00
2023-02-22T07:31:46.397Z,94969.00
2023-02-22T07:32:46.554Z,94969.00
2023-02-22T07:33:46.449Z,94969.00
2023-02-22T07:34:46.525Z,94969.00
2023-02-22T07:35:46.584Z,94967.00
2023-02-22T07:36:46.607Z,94965.00
2023-02-22T07:37:46.640Z,94962.00
2023-02-22T07:38:46.944Z,94962.00
2023-02-22T07:39:46.632Z,94962.00
2023-02-22T07:40:46.676Z,94956.00
2023-02-22T07:41:46.723Z,94958.00
2023-02-22T07:42:46.788Z,94956.00
2023-02-22T07:43:46.786Z,94956.00
2023-02-22T07:44:46.850Z,94952.00
2023-02-22T07:45:47.064Z,94950.00
2023-02-22T07:46:46.994Z,94950.00
2023-02-22T07:47:47.066Z,94950.00
2023-02-22T07:48:47.136Z,94946.00
2023-02-22T07:49:47.137Z,94944.00
2023-02-22T07:50:47.230Z,94944.00
2023-02-22T07:51:47.226Z,94942.00
2023-02-22T07:52:47.237Z,94942.00
2023-02-22T07:53:47.214Z,94944.00
2023-02-22T07:54:47.211Z,94940.00
2023-02-22T07:55:47.261Z,94944.00
2023-02-22T07:56:47.309Z,94944.00
2023-02-22T07:57:47.334Z,94942.00
2023-02-22T07:58:47.416Z,94944.00
2023-02-22T07:59:47.461Z,94942.00
2023-02-22T08:00:47.548Z,94940.00
2023-02-22T08:01:47.628Z,94936.00
2023-02-22T08:02:47.735Z,94938.00
2023-02-22T08:03:47.813Z,94938.00
2023-02-22T08:04:47.763Z,94936.00
2023-02-22T08:05:48.250Z,94936.00
2023-02-22T08:06:47.852Z,94934.00
2023-02-22T08:07:47.900Z,94934.00
2023-02-22T08:08:47.973Z,94932.00
2023-02-22T08:09:47.984Z,94934.00
2023-02-22T08:10:48.045Z,94932.00
2023-02-22T08:11:48.067Z,94928.00
2023-02-22T08:12:48.089Z,94932.00
2023-02-22T08:13:48.129Z,94928.00
2023-02-22T08:14:48.160Z,94928.00
2023-02-22T08:15:48.265Z,94924.00
2023-02-22T08:16:48.277Z,94926.00
2023-02-22T08:17:48.372Z,94924.00
2023-02-22T08:18:48.356Z,94920.00
2023-02-22T08:19:48.396Z,94918.00
2023-02-22T08:20:48.464Z,94915.00
2023-02-22T08:21:48.476Z,94915.00
2023-02-22T08:22:48.529Z,94913.00
2023-02-22T08:23:48.526Z,94913.00
2023-02-22T08:24:48.573Z,94913.00
2023-02-22T08:25:48.609Z,94909.00
2023-02-22T08:26:48.644Z,94907.00
2023-02-22T08:27:48.677Z,94909.00
2023-02-22T08:28:48.722Z,94907.00
2023-02-22T08:29:48.771Z,94909.00
2023-02-22T08:30:48.886Z,94907.00
2023-02-22T08:31:49.065Z,94909.00
2023-02-22T08:32:49.054Z,94907.00
2023-02-22T08:33:48.983Z,94907.00
2023-02-22T08:34:49.036Z,94907.00
2023-02-22T08:35:49.039Z,94905.00
2023-02-22T08:36:49.101Z,94903.00
2023-02-22T08:37:49.134Z,94905.00
2023-02-22T08:38:49.140Z,94905.00
2023-02-22T08:39:49.197Z,94903.00
2023-02-22T08:40:49.224Z,94903.00
2023-02-22T08:41:49.271Z,94893.00
2023-02-22T08:42:49.276Z,94891.00
2023-02-22T08:43:49.324Z,94889.00
2023-02-22T08:44:49.399Z,94885.00
2023-02-22T08:45:49.518Z,94883.00
2023-02-22T08:46:49.471Z,94881.00
2023-02-22T08:47:49.475Z,94881.00
2023-02-22T08:48:49.511Z,94879.00
2023-02-22T08:49:49.542Z,94879.00
2023-02-22T08:50:49.735Z,94877.00
2023-02-22T08:51:49.600Z,94875.00
2023-02-22T08:52:49.620Z,94873.00
2023-02-22T08:53:49.724Z,94871.00
2023-02-22T08:54:49.773Z,94869.00
2023-02-22T08:55:49.700Z,94871.00
2023-02-22T08:56:49.700Z,94865.00
2023-02-22T08:57:49.687Z,94865.00
2023-02-22T08:58:49.774Z,94862.00
2023-02-22T09:00:50.276Z,94863.00
2023-02-22T09:01:49.966Z,94862.00
2023-02-22T09:02:50.019Z,94858.00
2023-02-22T09:03:50.063Z,94856.00
2023-02-22T09:04:50.142Z,94854.00
2023-02-22T09:05:50.208Z,94856.00
2023-02-22T09:06:50.214Z,94854.00
2023-02-22T09:07:50.250Z,94852.00
2023-02-22T09:08:50.331Z,94848.00
2023-02-22T09:09:50.359Z,94848.00
2023-02-22T09:10:50.451Z,94846.00
2023-02-22T09:11:52.898Z,94848.00
2023-02-22T09:12:50.719Z,94846.00
2023-02-22T09:13:50.779Z,94846.00
2023-02-22T09:14:50.773Z,94844.00
2023-02-22T09:15:50.829Z,94842.00
2023-02-22T09:16:50.922Z,94840.00
2023-02-22T09:17:50.855Z,94840.00
2023-02-22T09:18:50.811Z,94840.00
2023-02-22T09:19:50.837Z,94838.00
2023-02-22T09:20:50.938Z,94838.00
2023-02-22T09:21:50.970Z,94832.00
2023-02-22T09:22:51.056Z,94836.00
2023-02-22T09:23:51.069Z,94830.00
2023-02-22T09:24:51.113Z,94828.00
2023-02-22T09:25:51.144Z,94828.00
2023-02-22T09:26:51.223Z,94828.00
2023-02-22T09:27:51.237Z,94824.00
2023-02-22T09:28:51.229Z,94826.00
2023-02-22T09:29:51.242Z,94828.00
2023-02-22T09:30:51.238Z,94826.00
2023-02-22T09:31:52.000Z,94820.00
2023-02-22T09:32:51.418Z,94824.00
2023-02-22T09:33:51.270Z,94820.00
2023-02-22T09:34:51.315Z,94820.00
2023-02-22T09:35:51.518Z,94816.00
2023-02-22T09:36:51.330Z,94815.00
2023-02-22T09:37:51.344Z,94813.00
2023-02-22T09:38:51.353Z,94811.00
2023-02-22T09:39:51.409Z,94811.00
2023-02-22T09:40:51.417Z,94811.00
2023-02-22T09:41:51.428Z,94809.00
2023-02-22T09:42:51.393Z,94805.00
2023-02-22T09:43:51.431Z,94805.00
2023-02-22T09:44:51.411Z,94803.00
2023-02-22T09:45:51.523Z,94803.00
2023-02-22T09:46:51.827Z,94799.00
2023-02-22T09:47:51.535Z,94801.00
2023-02-22T09:48:51.548Z,94799.00
2023-02-22T09:49:51.529Z,94799.00
2023-02-22T09:50:51.645Z,94793.00
2023-02-22T09:51:51.758Z,94797.00
2023-02-22T09:52:51.603Z,94791.00
2023-02-22T09:53:51.624Z,94791.00
2023-02-22T09:54:51.778Z,94791.00
2023-02-22T09:55:51.721Z,94789.00
2023-02-22T09:56:51.789Z,94783.00
2023-02-22T09:57:51.826Z,94783.00
2023-02-22T09:58:51.824Z,94783.00
2023-02-22T09:59:51.838Z,94783.00
2023-02-22T10:00:51.854Z,94781.00
2023-02-22T10:01:51.928Z,94777.00
2023-02-22T10:02:51.956Z,94775.00
2023-02-22T10:03:52.077Z,94773.00
2023-02-22T10:04:52.051Z,94773.00
2023-02-22T10:05:52.077Z,94771.00
2023-02-22T10:06:52.293Z,94769.00
2023-02-22T10:07:52.232Z,94769.00
2023-02-22T10:08:52.198Z,94766.00
2023-02-22T10:09:52.293Z,94766.00
2023-02-22T10:10:52.282Z,94762.00
2023-02-22T10:11:52.758Z,94762.00
2023-02-22T10:12:52.363Z,94760.00
2023-02-22T10:13:52.438Z,94760.00
2023-02-22T10:14:52.460Z,94758.00
2023-02-22T10:15:52.522Z,94756.00
2023-02-22T10:16:52.579Z,94756.00
2023-02-22T10:17:52.605Z,94752.00
2023-02-22T10:18:52.649Z,94750.00
2023-02-22T10:19:54.748Z,94748.00
2023-02-22T10:20:52.732Z,94746.00
2023-02-22T10:21:52.823Z,94746.00
2023-02-22T10:22:52.788Z,94746.00
2023-02-22T10:23:52.823Z,94754.00
2023-02-22T10:24:52.820Z,94748.00
2023-02-22T10:25:52.866Z,94748.00
2023-02-22T10:26:53.324Z,94744.00
2023-02-22T10:27:52.866Z,94746.00
2023-02-22T10:28:52.927Z,94742.00
2023-02-22T10:29:53.028Z,94740.00
2023-02-22T10:30:53.023Z,94742.00
2023-02-22T10:31:53.360Z,94738.00
2023-02-22T10:32:52.981Z,94736.00
2023-02-22T10:33:52.998Z,94740.00
2023-02-22T10:34:52.996Z,94734.00
2023-02-22T10:35:53.007Z,94734.00
2023-02-22T10:36:53.038Z,94730.00
2023-02-22T10:37:53.020Z,94730.00
2023-02-22T10:38:53.963Z,94726.00
2023-02-22T10:39:53.099Z,94726.00
2023-02-22T10:40:53.080Z,94726.00
2023-02-22T10:41:53.309Z,94724.00
2023-02-22T10:42:53.066Z,94721.00
2023-02-22T10:43:53.018Z,94721.00
2023-02-22T10:44:53.024Z,94719.00
2023-02-22T10:45:53.107Z,94719.00
2023-02-22T10:46:53.276Z,94715.00
2023-02-22T10:47:53.057Z,94711.00
2023-02-22T10:48:53.062Z,94711.00
2023-02-22T10:49:53.065Z,94709.00
2023-02-22T10:50:53.106Z,94711.00
2023-02-22T10:51:53.338Z,94709.00
2023-02-22T10:52:53.067Z,94707.00
2023-02-22T10:53:53.098Z,94703.00
2023-02-22T10:54:54.425Z,94701.00
2023-02-22T10:55:53.130Z,94697.00
2023-02-22T10:56:53.050Z,94697.00
2023-02-22T10:57:53.044Z,94695.00
2023-02-22T10:58:53.068Z,94693.00
2023-02-22T10:59:53.037Z,94691.00
2023-02-22T11:00:53.049Z,94691.00
2023-02-22T11:01:53.281Z,94691.00
2023-02-22T11:02:53.030Z,94687.00
2023-02-22T11:03:53.015Z,94685.00
2023-02-22T11:04:53.078Z,94685.00
2023-02-22T11:05:53.025Z,94683.00
2023-02-22T11:06:53.023Z,94681.00
2023-02-22T11:07:52.981Z,94681.00
2023-02-22T11:08:52.991Z,94679.00
2023-02-22T11:09:52.998Z,94674.00
2023-02-22T11:10:52.968Z,94677.00
2023-02-22T11:11:53.021Z,94672.00
2023-02-22T11:12:52.968Z,94674.00
2023-02-22T11:13:52.956Z,94674.00
2023-02-22T11:14:52.978Z,94672.00
2023-02-22T11:15:52.937Z,94668.00
2023-02-22T11:16:52.983Z,94668.00
2023-02-22T11:17:52.952Z,94664.00
2023-02-22T11:18:52.960Z,94662.00
2023-02-22T11:19:52.915Z,94658.00
2023-02-22T11:20:52.915Z,94660.00
2023-02-22T11:21:52.921Z,94658.00
2023-02-22T11:22:52.955Z,94654.00
2023-02-22T11:23:52.886Z,94652.00
2023-02-22T11:24:53.010Z,94650.00
2023-02-22T11:25:52.904Z,94648.00
2023-02-22T11:26:52.911Z,94646.00
2023-02-22T11:27:52.863Z,94646.00
2023-02-22T11:28:52.876Z,94636.00
2023-02-22T11:29:52.854Z,94636.00
2023-02-22T11:30:53.033Z,94634.00
2023-02-22T11:31:52.918Z,94628.00
2023-02-22T11:32:52.889Z,94628.00
2023-02-22T11:33:52.854Z,94624.00
2023-02-22T11:35:00.249Z,94624.00
2023-02-22T11:35:53.893Z,94621.00
2023-02-22T11:36:52.874Z,94622.00
2023-02-22T11:37:53.320Z,94622.00
2023-02-22T11:38:52.887Z,94622.00
2023-02-22T11:39:52.899Z,94621.00
2023-02-22T11:40:52.852Z,94617.00
2023-02-22T11:41:52.856Z,94621.00
2023-02-22T11:42:55.330Z,94615.00
2023-02-22T11:43:52.974Z,94615.00
2023-02-22T11:44:53.029Z,94609.00
2023-02-22T11:45:58.561Z,94607.00
2023-02-22T11:46:54.017Z,94607.00
2023-02-22T11:47:53.356Z,94605.00
2023-02-22T11:48:53.001Z,94605.00
2023-02-22T11:49:53.002Z,94607.00
2023-02-22T11:50:53.034Z,94605.00
2023-02-22T11:51:53.086Z,94603.00
2023-02-22T11:52:53.036Z,94601.00
2023-02-22T11:53:53.060Z,94601.00
2023-02-22T11:54:53.090Z,94597.00
2023-02-22T11:55:53.056Z,94597.00
2023-02-22T11:56:53.115Z,94595.00
2023-02-22T11:57:53.316Z,94595.00
2023-02-22T11:58:53.197Z,94593.00
2023-02-22T11:59:53.234Z,94589.00
2023-02-22T12:00:53.340Z,94587.00
2023-02-22T12:01:53.302Z,94585.00
2023-02-22T12:02:57.294Z,94589.00
2023-02-22T12:03:53.510Z,94587.00
2023-02-22T12:04:53.463Z,94587.00
2023-02-22T12:05:53.353Z,94583.00
2023-02-22T12:06:53.378Z,94579.00
2023-02-22T12:07:53.329Z,94577.00
2023-02-22T12:08:55.120Z,94574.00
2023-02-22T12:09:53.326Z,94575.00
2023-02-22T12:10:53.331Z,94574.00
2023-02-22T12:11:53.500Z,94575.00
2023-02-22T12:12:53.323Z,94574.00
2023-02-22T12:13:53.371Z,94570.00
2023-02-22T12:14:55.300Z,94568.00
2023-02-22T12:15:53.302Z,94560.00
2023-02-22T12:16:53.283Z,94560.00
2023-02-22T12:18:00.021Z,94560.00
2023-02-22T12:18:54.295Z,94562.00
2023-02-22T12:19:53.308Z,94560.00
2023-02-22T12:20:54.535Z,94564.00
2023-02-22T12:21:53.282Z,94558.00
2023-02-22T12:22:53.371Z,94556.00
2023-02-22T12:23:53.264Z,94554.00
2023-02-22T12:25:00.705Z,94556.00
2023-02-22T12:25:54.307Z,94554.00
2023-02-22T12:26:53.322Z,94554.00
2023-02-22T12:27:53.330Z,94554.00
2023-02-22T12:28:53.334Z,94552.00
2023-02-22T12:29:53.575Z,94554.00
2023-02-22T12:30:53.671Z,94552.00
2023-02-22T12:31:53.619Z,94550.00
2023-02-22T12:32:53.604Z,94546.00
2023-02-22T12:33:53.385Z,94548.00
2023-02-22T12:34:53.398Z,94546.00
2023-02-22T12:35:53.438Z,94544.00
2023-02-22T12:36:53.464Z,94540.00
2023-02-22T12:37:53.851Z,94542.00
2023-02-22T12:38:53.607Z,94536.00
2023-02-22T12:39:54.169Z,94540.00
2023-02-22T12:40:53.704Z,94540.00
2023-02-22T12:41:53.884Z,94540.00
2023-02-22T12:42:53.882Z,94538.00
2023-02-22T12:43:54.302Z,94538.00
2023-02-22T12:44:54.077Z,94534.00
2023-02-22T12:45:53.989Z,94536.00
2023-02-22T12:46:54.051Z,94534.00
2023-02-22T12:47:54.106Z,94530.00
2023-02-22T12:48:55.282Z,94525.00
2023-02-22T12:49:54.185Z,94525.00
2023-02-22T12:50:54.187Z,94521.00
2023-02-22T12:51:54.153Z,94523.00
2023-02-22T12:52:54.239Z,94521.00
2023-02-22T12:53:54.240Z,94517.00
2023-02-22T12:54:54.310Z,94519.00
2023-02-22T12:55:56.525Z,94513.00
2023-02-22T12:56:54.315Z,94515.00
2023-02-22T12:57:54.332Z,94513.00
2023-02-22T12:58:54.338Z,94515.00
2023-02-22T12:59:54.331Z,94513.00
2023-02-22T13:00:54.333Z,94511.00
2023-02-22T13:01:54.377Z,94509.00
2023-02-22T13:02:54.322Z,94509.00
2023-02-22T13:03:54.362Z,94507.00
2023-02-22T13:04:54.365Z,94505.00
2023-02-22T13:05:54.336Z,94507.00
2023-02-22T13:06:54.379Z,94503.00
2023-02-22T13:07:54.389Z,94501.00
2023-02-22T13:08:54.399Z,94497.00
2023-02-22T13:09:54.370Z,94501.00
2023-02-22T13:10:54.361Z,94495.00
2023-02-22T13:11:54.396Z,94497.00
2023-02-22T13:12:54.373Z,94497.00
2023-02-22T13:13:54.368Z,94495.00
2023-02-22T13:14:54.380Z,94495.00
2023-02-22T13:15:54.409Z,94493.00
2023-02-22T13:16:54.343Z,94491.00
2023-02-22T13:17:54.390Z,94489.00
2023-02-22T13:18:54.336Z,94489.00
2023-02-22T13:19:54.339Z,94489.00
2023-02-22T13:20:54.334Z,94489.00
2023-02-22T13:21:54.359Z,94489.00
2023-02-22T13:22:54.348Z,94487.00
2023-02-22T13:23:54.336Z,94485.00
2023-02-22T13:24:54.334Z,94481.00
2023-02-22T13:25:54.353Z,94480.00
2023-02-22T13:26:54.352Z,94480.00
2023-02-22T13:27:54.369Z,94478.00
2023-02-22T13:28:54.342Z,94478.00
2023-02-22T13:29:54.380Z,94480.00
2023-02-22T13:30:54.410Z,94478.00
2023-02-22T13:31:54.477Z,94478.00
2023-02-22T13:32:54.392Z,94476.00
2023-02-22T13:33:54.352Z,94476.00
2023-02-22T13:34:54.364Z,94474.00
2023-02-22T13:35:54.385Z,94472.00
2023-02-22T13:36:54.383Z,94470.00
2023-02-22T13:37:54.428Z,94466.00
2023-02-22T13:38:54.403Z,94466.00
2023-02-22T13:39:54.405Z,94468.00
2023-02-22T13:40:54.414Z,94466.00
2023-02-22T13:41:54.413Z,94466.00
2023-02-22T13:42:54.414Z,94468.00
2023-02-22T13:43:54.464Z,94464.00
2023-02-22T13:44:54.428Z,94468.00
2023-02-22T13:45:54.446Z,94462.00
2023-02-22T13:46:54.456Z,94462.00
2023-02-22T13:47:54.492Z,94458.00
2023-02-22T13:48:54.467Z,94458.00
2023-02-22T13:49:54.469Z,94454.00
2023-02-22T13:50:54.465Z,94456.00
2023-02-22T13:51:54.516Z,94458.00
2023-02-22T13:52:54.542Z,94456.00
2023-02-22T13:53:54.524Z,94452.00
2023-02-22T13:54:54.655Z,94446.00
2023-02-22T13:55:54.552Z,94444.00
2023-02-22T13:56:54.546Z,94442.00
2023-02-22T13:57:54.572Z,94440.00
2023-02-22T13:58:54.606Z,94442.00
2023-02-22T13:59:54.607Z,94448.00
2023-02-22T14:00:54.611Z,94444.00
2023-02-22T14:01:54.765Z,94440.00
2023-02-22T14:02:54.755Z,94440.00
2023-02-22T14:03:54.654Z,94440.00
2023-02-22T14:04:54.661Z,94436.00
2023-02-22T14:05:54.739Z,94438.00
2023-02-22T14:06:54.716Z,94438.00
2023-02-22T14:07:54.777Z,94438.00
2023-02-22T14:08:54.802Z,94438.00
2023-02-22T14:09:54.791Z,94436.00
2023-02-22T14:10:54.853Z,94438.00
2023-02-22T14:11:54.863Z,94438.00
2023-02-22T14:12:54.893Z,94440.00
2023-02-22T14:13:54.920Z,94438.00
2023-02-22T14:14:54.960Z,94436.00
2023-02-22T14:15:55.012Z,94438.00
2023-02-22T14:16:55.049Z,94434.00
2023-02-22T14:17:55.098Z,94434.00
2023-02-22T14:18:55.151Z,94432.00
2023-02-22T14:19:55.219Z,94434.00
2023-02-22T14:20:55.260Z,94432.00
2023-02-22T14:21:55.309Z,94430.00
2023-02-22T14:22:55.412Z,94430.00
2023-02-22T14:23:55.448Z,94430.00
2023-02-22T14:24:55.470Z,94428.00
2023-02-22T14:25:55.494Z,94426.00
2023-02-22T14:26:55.522Z,94426.00
2023-02-22T14:27:55.556Z,94428.00
2023-02-22T14:28:55.892Z,94426.00
2023-02-22T14:29:55.625Z,94423.00
2023-02-22T14:30:55.671Z,94421.00
2023-02-22T14:31:55.833Z,94419.00
2023-02-22T14:32:55.865Z,94421.00
2023-02-22T14:33:55.777Z,94417.00
2023-02-22T14:34:55.838Z,94413.00
2023-02-22T14:35:55.836Z,94413.00
2023-02-22T14:36:55.870Z,94411.00
2023-02-22T14:37:55.966Z,94411.00
2023-02-22T14:38:55.991Z,94411.00
2023-02-22T14:39:56.034Z,94413.00
2023-02-22T14:40:56.021Z,94409.00
2023-02-22T14:41:56.064Z,94411.00
2023-02-22T14:42:56.108Z,94409.00
2023-02-22T14:43:56.391Z,94411.00
2023-02-22T14:44:56.224Z,94407.00
2023-02-22T14:45:56.341Z,94407.00
2023-02-22T14:46:56.282Z,94407.00
2023-02-22T14:47:56.286Z,94409.00
2023-02-22T14:48:56.341Z,94409.00
2023-02-22T14:49:56.354Z,94409.00
2023-02-22T14:50:56.401Z,94411.00
2023-02-22T14:51:56.471Z,94407.00
2023-02-22T14:52:56.464Z,94411.00
2023-02-22T14:53:56.507Z,94409.00
2023-02-22T14:54:56.548Z,94409.00
2023-02-22T14:55:56.579Z,94409.00
2023-02-22T14:56:56.592Z,94409.00
2023-02-22T14:57:56.633Z,94413.00
2023-02-22T14:58:56.717Z,94411.00
2023-02-22T14:59:56.863Z,94415.00
2023-02-22T15:00:57.046Z,94413.00
2023-02-22T15:02:09.798Z,94411.00
2023-02-22T15:02:57.784Z,94409.00
2023-02-22T15:04:07.266Z,94411.00
2023-02-22T15:04:57.739Z,94407.00
2023-02-22T15:05:56.913Z,94413.00
2023-02-22T15:06:56.718Z,94411.00
2023-02-22T15:07:56.711Z,94409.00
2023-02-22T15:08:56.944Z,94411.00
2023-02-22T15:09:56.697Z,94411.00
2023-02-22T15:10:56.662Z,94409.00
2023-02-22T15:11:56.641Z,94411.00
2023-02-22T15:12:56.666Z,94409.00
2023-02-22T15:13:56.649Z,94409.00
2023-02-22T15:14:56.667Z,94413.00
2023-02-22T15:15:56.680Z,94407.00
2023-02-22T15:16:56.618Z,94409.00
2023-02-22T15:17:56.660Z,94411.00
2023-02-22T15:18:56.699Z,94411.00
2023-02-22T15:19:56.763Z,94413.00
2023-02-22T15:20:56.772Z,94413.00
2023-02-22T15:21:56.825Z,94413.00
2023-02-22T15:22:56.858Z,94407.00
2023-02-22T15:23:57.420Z,94411.00
2023-02-22T15:24:56.940Z,94405.00
2023-02-22T15:25:56.972Z,94407.00
2023-02-22T15:27:02.085Z,94405.00
2023-02-22T15:27:58.041Z,94403.00
2023-02-22T15:28:57.082Z,94401.00
2023-02-22T15:29:57.040Z,94401.00
2023-02-22T15:30:57.009Z,94399.00
2023-02-22T15:31:57.073Z,94399.00
2023-02-22T15:33:04.180Z,94399.00
2023-02-22T15:33:57.981Z,94399.00
2023-02-22T15:34:56.983Z,94399.00
2023-02-22T15:35:56.973Z,94399.00
2023-02-22T15:36:57.039Z,94399.00
2023-02-22T15:37:56.985Z,94397.00
2023-02-22T15:38:56.997Z,94397.00
2023-02-22T15:39:56.975Z,94399.00
2023-02-22T15:40:56.951Z,94401.00
2023-02-22T15:41:56.953Z,94403.00
2023-02-22T15:42:56.953Z,94401.00
2023-02-22T15:43:56.998Z,94399.00
2023-02-22T15:44:57.035Z,94399.00
2023-02-22T15:45:57.139Z,94403.00
2023-02-22T15:46:57.131Z,94403.00
2023-02-22T15:47:57.203Z,94407.00
2023-02-22T15:48:57.268Z,94405.00
2023-02-22T15:49:57.320Z,94413.00
2023-02-22T15:50:57.384Z,94411.00
2023-02-22T15:51:57.440Z,94411.00
2023-02-22T15:52:57.481Z,94407.00
2023-02-22T15:53:57.552Z,94409.00
2023-02-22T15:54:57.565Z,94405.00
2023-02-22T15:55:57.626Z,94405.00
2023-02-22T15:56:57.727Z,94405.00
2023-02-22T15:57:57.743Z,94403.00
2023-02-22T15:58:57.801Z,94403.00
2023-02-22T15:59:57.864Z,94407.00
2023-02-22T16:00:57.970Z,94407.00
2023-02-22T16:01:57.979Z,94411.00
2023-02-22T16:02:58.026Z,94407.00
2023-02-22T16:03:58.054Z,94411.00
2023-02-22T16:04:59.690Z,94411.00
2023-02-22T16:05:58.181Z,94409.00
2023-02-22T16:06:58.238Z,94405.00
2023-02-22T16:07:58.272Z,94405.00
2023-02-22T16:08:58.327Z,94407.00
2023-02-22T16:09:58.376Z,94409.00
2023-02-22T16:10:58.418Z,94411.00
2023-02-22T16:11:58.484Z,94415.00
2023-02-22T16:12:58.524Z,94411.00
2023-02-22T16:13:58.612Z,94415.00
2023-02-22T16:14:58.641Z,94415.00
2023-02-22T16:15:58.688Z,94413.00
2023-02-22T16:16:58.758Z,94419.00
2023-02-22T16:18:02.302Z,94417.00
2023-02-22T16:18:58.844Z,94419.00
2023-02-22T16:19:58.876Z,94419.00
2023-02-22T16:20:58.821Z,94421.00
2023-02-22T16:21:58.759Z,94421.00
2023-02-22T16:22:58.766Z,94421.00
2023-02-22T16:24:10.291Z,94419.00
2023-02-22T16:24:59.772Z,94419.00
2023-02-22T16:25:58.719Z,94423.00
2023-02-22T16:26:58.709Z,94425.00
2023-02-22T16:27:58.723Z,94428.00
2023-02-22T16:28:58.766Z,94428.00
2023-02-22T16:29:58.734Z,94430.00
2023-02-22T16:30:58.844Z,94430.00
2023-02-22T16:31:58.887Z,94430.00
2023-02-22T16:32:58.740Z,94434.00
2023-02-22T16:33:58.750Z,94434.00
2023-02-22T16:34:58.833Z,94432.00
2023-02-22T16:35:58.869Z,94438.00
2023-02-22T16:36:58.926Z,94436.00
2023-02-22T16:37:58.970Z,94438.00
2023-02-22T16:38:59.061Z,94438.00
2023-02-22T16:39:59.089Z,94438.00
2023-02-22T16:40:59.113Z,94440.00
2023-02-22T16:41:59.166Z,94442.00
2023-02-22T16:42:59.244Z,94442.00
2023-02-22T16:43:59.355Z,94442.00
2023-02-22T16:44:59.369Z,94442.00
2023-02-22T16:45:59.513Z,94440.00
2023-02-22T16:46:59.464Z,94442.00
2023-02-22T16:47:59.552Z,94440.00
2023-02-22T16:48:59.626Z,94440.00
2023-02-22T16:49:59.679Z,94442.00
2023-02-22T16:50:59.720Z,94444.00
2023-02-22T16:51:59.792Z,94446.00
2023-02-22T16:52:59.813Z,94448.00
2023-02-22T16:53:59.903Z,94448.00
2023-02-22T16:54:59.936Z,94450.00
2023-02-22T16:56:00.009Z,94452.00
2023-02-22T16:57:00.108Z,94452.00
2023-02-22T16:58:00.131Z,94456.00
2023-02-22T16:59:00.239Z,94456.00
2023-02-22T17:00:00.263Z,94458.00
2023-02-22T17:01:00.336Z,94456.00
2023-02-22T17:02:00.393Z,94456.00
2023-02-22T17:03:00.479Z,94460.00
2023-02-22T17:04:00.519Z,94460.00
2023-02-22T17:05:00.586Z,94458.00
2023-02-22T17:06:00.629Z,94466.00
2023-02-22T17:07:00.698Z,94466.00
2023-02-22T17:08:01.462Z,94466.00
2023-02-22T17:09:00.852Z,94464.00
2023-02-22T17:10:00.899Z,94462.00
2023-02-22T17:11:00.959Z,94466.00
2023-02-22T17:12:00.994Z,94462.00
2023-02-22T17:13:09.864Z,94466.00
2023-02-22T17:14:02.073Z,94466.00
2023-02-22T17:15:01.068Z,94470.00
2023-02-22T17:16:01.057Z,94472.00
2023-02-22T17:17:01.095Z,94474.00
2023-02-22T17:18:01.041Z,94476.00
2023-02-22T17:19:01.041Z,94478.00
2023-02-22T17:20:01.065Z,94478.00
2023-02-22T17:21:01.041Z,94481.00
2023-02-22T17:22:01.021Z,94483.00
2023-02-22T17:23:01.054Z,94483.00
2023-02-22T17:24:01.121Z,94487.00
2023-02-22T17:25:01.210Z,94483.00
2023-02-22T17:26:01.228Z,94485.00
2023-02-22T17:27:01.278Z,94487.00
2023-02-22T17:28:01.316Z,94489.00
2023-02-22T17:29:01.382Z,94491.00
2023-02-22T17:30:01.430Z,94491.00
2023-02-22T17:31:02.238Z,94491.00
2023-02-22T17:32:01.583Z,94491.00
2023-02-22T17:33:01.629Z,94495.00
2023-02-22T17:34:01.669Z,94495.00
2023-02-22T17:35:01.735Z,94495.00
2023-02-22T17:36:01.840Z,94497.00
2023-02-22T17:37:01.880Z,94497.00
2023-02-22T17:38:01.943Z,94499.00
2023-02-22T17:39:02.061Z,94503.00
2023-02-22T17:40:02.109Z,94501.00
2023-02-22T17:41:02.115Z,94503.00
2023-02-22T17:42:02.136Z,94501.00
2023-02-22T17:43:02.242Z,94503.00
2023-02-22T17:44:02.272Z,94503.00
2023-02-22T17:45:02.323Z,94507.00
2023-02-22T17:46:02.456Z,94509.00
2023-02-22T17:47:02.412Z,94507.00
2023-02-22T17:48:02.461Z,94509.00
2023-02-22T17:49:02.551Z,94509.00
2023-02-22T17:50:02.582Z,94509.00
2023-02-22T17:51:02.588Z,94511.00
2023-02-22T17:52:02.609Z,94509.00
2023-02-22T17:53:02.793Z,94511.00
2023-02-22T17:54:02.650Z,94511.00